Time;durP1;ratioP1;P1;durP2;ratioP2;P2;SDS_P1;SDS_P2;PMS_P1;PMS_P2;Temp;Humidity;BMP_temperature;BMP_pressure;BME280_temperature;BME280_humidity;BME280_pressure;Samples;Min_cycle;Max_cycle;Signal;HPM_P1;HPM_P2
2022/09/07 00:00:56;;;;;;;8.07;1.40;;;44.20;29.80;;;;;;5073043;28;20036;-65
2022/09/07 00:03:23;;;;;;;9.13;1.98;;;44.10;29.50;;;;;;5071267;28;20052;-63
2022/09/07 00:05:51;;;;;;;10.38;1.45;;;44.10;29.00;;;;;;5071675;28;20070;-63
2022/09/07 00:08:19;;;;;;;7.35;1.40;;;44.00;28.60;;;;;;5068809;28;20105;-62
2022/09/07 00:10:54;;;;;;;8.57;1.52;;;44.00;28.90;;;;;;5068479;28;20025;-61
2022/09/07 00:13:22;;;;;;;6.77;1.40;;;43.90;29.20;;;;;;5071661;28;20126;-62
2022/09/07 00:15:48;;;;;;;7.82;1.13;;;43.90;29.70;;;;;;5072892;28;20021;-62
2022/09/07 00:18:15;;;;;;;6.72;1.30;;;43.80;30.00;;;;;;5071257;28;20384;-62
2022/09/07 00:20:41;;;;;;;12.93;1.58;;;43.70;30.10;;;;;;5068676;28;20044;-62
2022/09/07 00:23:07;;;;;;;8.57;1.48;;;43.60;29.40;;;;;;5069150;28;20109;-63
2022/09/07 00:25:39;;;;;;;5.05;1.35;;;43.50;29.10;;;;;;5070127;28;20024;-63
2022/09/07 00:28:07;;;;;;;6.20;1.30;;;43.50;29.30;;;;;;5068357;28;20814;-63
2022/09/07 00:30:39;;;;;;;7.43;1.50;;;43.50;29.60;;;;;;5065606;28;20020;-64
2022/09/07 00:33:05;;;;;;;14.20;1.83;;;43.40;29.50;;;;;;5068628;28;20371;-68
2022/09/07 00:35:31;;;;;;;7.53;1.35;;;43.40;29.60;;;;;;5069987;28;20327;-62
2022/09/07 00:37:58;;;;;;;9.52;1.35;;;43.30;29.70;;;;;;5071473;28;20024;-64
2022/09/07 00:40:24;;;;;;;7.07;2.03;;;43.20;29.80;;;;;;5067758;28;20016;-64
2022/09/07 00:42:51;;;;;;;7.35;1.23;;;43.10;30.90;;;;;;5069905;28;20028;-65
2022/09/07 00:45:19;;;;;;;15.63;1.52;;;43.10;30.20;;;;;;5069984;28;20024;-64
2022/09/07 00:47:53;;;;;;;7.47;1.30;;;43.00;30.10;;;;;;5069121;28;20024;-64
2022/09/07 00:50:22;;;;;;;12.93;1.80;;;42.90;30.10;;;;;;5068737;28;20021;-64
2022/09/07 00:52:56;;;;;;;4.45;1.25;;;42.80;30.30;;;;;;5069021;28;20385;-64
2022/09/07 00:55:22;;;;;;;11.30;1.40;;;42.80;30.10;;;;;;5053612;28;20028;-63
2022/09/07 00:57:53;;;;;;;14.00;1.88;;;42.60;30.40;;;;;;5071192;28;20399;-63
2022/09/07 01:00:20;;;;;;;30.30;2.83;;;42.60;30.70;;;;;;5069818;28;20038;-63
2022/09/07 01:02:49;;;;;;;32.90;2.33;;;42.50;30.70;;;;;;5070571;28;20020;-65
2022/09/07 01:05:35;;;;;;;14.57;1.70;;;42.50;30.40;;;;;;5068793;28;20020;-65
2022/09/07 01:08:02;;;;;;;11.02;1.73;;;42.40;30.20;;;;;;5069494;28;20066;-66
2022/09/07 01:10:32;;;;;;;13.27;1.52;;;42.30;30.80;;;;;;5073307;28;20021;-63
2022/09/07 01:12:59;;;;;;;12.70;1.75;;;42.30;31.10;;;;;;5079256;28;20489;-66
2022/09/07 01:15:46;;;;;;;8.43;1.30;;;42.20;31.20;;;;;;5073669;28;20029;-65
2022/09/07 01:18:18;;;;;;;6.65;1.48;;;42.10;31.30;;;;;;5074001;28;20025;-64
2022/09/07 01:21:08;;;;;;;6.47;1.45;;;42.00;31.00;;;;;;5087160;28;20208;-64
2022/09/07 01:23:52;;;;;;;12.80;1.55;;;42.00;30.30;;;;;;5061586;28;20040;-63
2022/09/07 01:26:34;;;;;;;13.07;1.95;;;41.90;30.60;;;;;;5088134;28;20056;-64
2022/09/07 01:29:15;;;;;;;12.70;1.40;;;41.80;30.60;;;;;;5071596;28;20406;-63
2022/09/07 01:32:01;;;;;;;24.33;2.10;;;41.70;30.70;;;;;;5072211;28;20025;-63
2022/09/07 01:34:28;;;;;;;16.20;2.03;;;41.70;31.20;;;;;;5069172;28;20040;-64
2022/09/07 01:37:17;;;;;;;23.83;2.15;;;41.60;31.60;;;;;;5073016;28;20020;-65
2022/09/07 01:40:34;;;;;;;11.50;1.35;;;41.40;33.70;;;;;;5073624;28;20120;-63
2022/09/07 01:43:09;;;;;;;13.73;1.58;;;41.20;35.50;;;;;;5016066;28;20116;-62
2022/09/07 01:45:40;;;;;;;15.05;1.80;;;40.90;36.00;;;;;;5011505;28;20492;-63
2022/09/07 01:48:11;;;;;;;21.58;2.03;;;40.70;35.50;;;;;;5011690;28;20041;-62
2022/09/07 01:51:11;;;;;;;16.63;1.83;;;40.60;38.20;;;;;;5028307;28;20034;-64
2022/09/07 01:53:58;;;;;;;27.23;2.63;;;40.60;37.20;;;;;;5012401;28;20040;-62
2022/09/07 01:56:33;;;;;;;29.00;3.15;;;40.40;38.60;;;;;;5021123;28;20844;-62
2022/09/07 01:59:34;;;;;;;24.75;2.70;;;40.30;39.20;;;;;;5026286;28;20065;-63
2022/09/07 02:02:15;;;;;;;34.70;2.90;;;40.10;39.90;;;;;;5009687;28;20029;-66
2022/09/07 02:04:52;;;;;;;31.45;3.13;;;40.00;41.20;;;;;;4994945;28;20029;-63
2022/09/07 02:07:24;;;;;;;33.47;3.17;;;39.90;42.10;;;;;;5028367;28;20113;-64
2022/09/07 02:09:56;;;;;;;29.65;3.08;;;39.70;42.60;;;;;;5012038;28;20025;-63
2022/09/07 02:12:46;;;;;;;28.73;2.45;;;39.60;43.50;;;;;;5010721;28;20573;-62
2022/09/07 02:15:36;;;;;;;30.70;2.75;;;39.50;44.00;;;;;;5012074;28;20033;-63
2022/09/07 02:18:06;;;;;;;27.70;2.75;;;39.40;44.00;;;;;;5019414;28;20036;-67
2022/09/07 02:20:37;;;;;;;17.85;2.75;;;39.30;44.50;;;;;;5055312;28;20039;-63
2022/09/07 02:23:11;;;;;;;20.02;2.50;;;39.20;44.70;;;;;;5055800;28;20031;-65
2022/09/07 02:25:54;;;;;;;41.33;3.38;;;39.20;44.90;;;;;;5074295;28;20550;-63
2022/09/07 02:28:26;;;;;;;17.90;2.65;;;39.00;45.10;;;;;;5070725;28;20456;-67
2022/09/07 02:30:53;;;;;;;26.50;3.25;;;38.90;45.00;;;;;;5072979;28;20078;-63
2022/09/07 02:33:19;;;;;;;26.17;3.35;;;38.80;45.00;;;;;;5072265;28;20494;-63
2022/09/07 02:35:46;;;;;;;13.85;3.80;;;38.80;45.00;;;;;;5070051;28;20029;-63
2022/09/07 02:38:12;;;;;;;22.38;3.08;;;38.80;45.20;;;;;;5071721;28;20017;-64
2022/09/07 02:40:39;;;;;;;17.33;2.80;;;38.70;45.20;;;;;;5073000;28;20027;-66
2022/09/07 02:43:08;;;;;;;20.33;2.13;;;38.70;45.50;;;;;;5073949;28;20067;-65
2022/09/07 02:45:38;;;;;;;27.83;2.45;;;38.60;45.60;;;;;;5074026;28;20028;-64
2022/09/07 02:48:31;;;;;;;22.73;2.45;;;38.50;45.50;;;;;;5073301;28;20470;-65
2022/09/07 02:51:13;;;;;;;27.67;2.90;;;38.50;45.20;;;;;;5069681;28;20086;-63
2022/09/07 02:53:56;;;;;;;17.77;2.50;;;38.30;45.30;;;;;;5070478;28;20437;-65
2022/09/07 02:56:58;;;;;;;20.80;2.80;;;38.30;45.60;;;;;;5070482;28;20032;-65
2022/09/07 02:59:36;;;;;;;24.40;3.25;;;38.30;45.10;;;;;;5076294;28;20020;-65
2022/09/07 03:02:12;;;;;;;34.20;3.83;;;38.20;44.40;;;;;;5071439;28;21549;-66
2022/09/07 03:04:56;;;;;;;29.23;3.67;;;38.20;44.20;;;;;;5088170;28;20115;-64
2022/09/07 03:07:35;;;;;;;28.15;2.40;;;38.20;43.20;;;;;;5054622;28;20570;-66
2022/09/07 03:10:04;;;;;;;19.40;2.72;;;38.20;42.70;;;;;;5071769;28;20036;-67
2022/09/07 03:12:43;;;;;;;17.33;2.42;;;38.20;42.60;;;;;;5055321;28;20032;-66
2022/09/07 03:15:13;;;;;;;24.85;2.95;;;38.20;42.50;;;;;;5071842;28;20044;-65
2022/09/07 03:17:40;;;;;;;23.92;3.03;;;38.20;42.30;;;;;;5072224;28;20025;-65
2022/09/07 03:20:08;;;;;;;17.85;2.78;;;38.20;42.30;;;;;;5073840;28;20478;-65
2022/09/07 03:22:34;;;;;;;21.92;3.50;;;38.20;42.40;;;;;;5072791;28;20028;-67
2022/09/07 03:25:03;;;;;;;31.90;3.88;;;38.10;42.80;;;;;;5073199;28;20573;-66
2022/09/07 03:27:30;;;;;;;31.20;3.45;;;38.10;42.90;;;;;;5073367;28;20028;-65
2022/09/07 03:29:57;;;;;;;25.15;3.50;;;38.10;43.20;;;;;;5072704;28;20035;-65
2022/09/07 03:32:28;;;;;;;27.65;4.10;;;38.00;43.40;;;;;;5073248;28;20028;-65
2022/09/07 03:34:55;;;;;;;27.33;3.50;;;38.00;43.70;;;;;;5073532;28;20089;-66
2022/09/07 03:37:21;;;;;;;25.48;3.63;;;37.90;44.40;;;;;;5072196;28;20029;-64
2022/09/07 03:39:48;;;;;;;27.75;3.40;;;37.80;44.70;;;;;;5069715;28;20466;-65
2022/09/07 03:42:14;;;;;;;18.30;3.53;;;37.80;45.10;;;;;;5072333;28;20023;-64
2022/09/07 03:44:40;;;;;;;23.25;3.08;;;37.70;45.70;;;;;;5071660;28;20028;-66
2022/09/07 03:47:07;;;;;;;22.77;3.05;;;37.60;46.00;;;;;;5073113;28;21524;-67
2022/09/07 03:49:33;;;;;;;20.40;3.35;;;37.50;47.00;;;;;;5070795;28;20032;-65
2022/09/07 03:52:00;;;;;;;33.22;4.03;;;37.50;47.00;;;;;;5071145;28;20482;-64
2022/09/07 03:54:26;;;;;;;23.63;4.13;;;37.50;47.20;;;;;;5070444;28;20040;-64
2022/09/07 03:56:52;;;;;;;26.25;4.28;;;37.30;47.40;;;;;;5071068;28;20016;-65
2022/09/07 03:59:19;;;;;;;37.15;4.50;;;37.20;47.40;;;;;;5072344;28;20032;-65
2022/09/07 04:01:45;;;;;;;24.67;4.57;;;37.20;47.80;;;;;;5071806;28;20021;-65
2022/09/07 04:04:12;;;;;;;34.35;4.75;;;37.10;48.10;;;;;;5069103;28;20048;-64
2022/09/07 04:06:38;;;;;;;18.85;4.10;;;37.00;48.40;;;;;;5087738;28;20498;-65
2022/09/07 04:09:10;;;;;;;26.05;4.07;;;37.00;49.10;;;;;;5071377;28;20028;-66
2022/09/07 04:11:36;;;;;;;14.70;3.05;;;36.90;50.10;;;;;;5077848;28;20108;-63
2022/09/07 04:14:03;;;;;;;20.75;3.03;;;36.90;51.00;;;;;;5056102;28;20106;-64
2022/09/07 04:16:30;;;;;;;21.77;3.15;;;36.70;51.50;;;;;;5074015;28;20024;-64
2022/09/07 04:18:57;;;;;;;16.00;2.90;;;36.60;51.90;;;;;;5074628;28;20039;-66
2022/09/07 04:21:26;;;;;;;15.07;2.67;;;36.50;52.30;;;;;;5072425;28;20024;-64
2022/09/07 04:23:52;;;;;;;18.27;2.60;;;36.40;52.30;;;;;;5070213;28;20036;-65
2022/09/07 04:26:25;;;;;;;20.38;3.08;;;36.30;52.20;;;;;;5070126;28;20516;-66
2022/09/07 04:28:53;;;;;;;20.85;2.80;;;36.10;71.10;;;;;;5070188;28;20101;-64
2022/09/07 04:31:20;;;;;;;24.60;3.30;;;35.80;66.30;;;;;;5071126;28;20016;-62
2022/09/07 04:33:48;;;;;;;25.90;3.22;;;35.90;65.10;;;;;;5052074;28;20044;-65
2022/09/07 04:36:16;;;;;;;61.08;4.93;;;34.70;64.30;;;;;;5052194;28;20657;-62
2022/09/07 04:38:43;;;;;;;26.80;3.10;;;35.80;55.10;;;;;;5051415;28;20024;-67
2022/09/07 04:41:15;;;;;;;42.58;3.70;;;35.60;56.10;;;;;;5068716;28;20467;-68
2022/09/07 04:43:43;;;;;;;29.80;3.50;;;35.50;56.70;;;;;;5054400;28;20474;-67
2022/09/07 04:46:23;;;;;;;30.55;3.17;;;35.30;58.40;;;;;;5070265;28;20045;-67
2022/09/07 04:48:54;;;;;;;35.03;4.53;;;35.20;59.50;;;;;;5070326;28;20043;-69
2022/09/07 04:51:23;;;;;;;26.60;3.65;;;35.00;62.50;;;;;;5070558;28;20515;-67
2022/09/07 04:53:51;;;;;;;27.00;4.00;;;35.00;64.20;;;;;;5068113;28;20056;-66
2022/09/07 04:56:18;;;;;;;36.53;4.43;;;34.90;66.60;;;;;;5070302;28;20379;-67
2022/09/07 04:58:46;;;;;;;45.28;4.53;;;34.70;68.30;;;;;;5070914;28;20103;-67
2022/09/07 05:01:15;;;;;;;44.60;5.57;;;34.70;70.20;;;;;;5069945;28;20056;-67
2022/09/07 05:03:41;;;;;;;43.85;5.28;;;34.20;98.40;;;;;;5070066;28;20037;-65
2022/09/07 05:06:08;;;;;;;42.88;4.97;;;34.40;75.20;;;;;;5070205;28;20024;-64
2022/09/07 05:08:40;;;;;;;76.13;6.30;;;34.20;76.40;;;;;;5069856;28;20032;-68
2022/09/07 05:11:08;;;;;;;44.95;5.63;;;34.10;78.60;;;;;;5071735;28;20494;-67
2022/09/07 05:13:34;;;;;;;52.25;4.68;;;34.10;79.80;;;;;;5071556;28;20032;-67
2022/09/07 05:16:10;;;;;;;60.22;5.45;;;34.00;80.60;;;;;;5073416;28;20390;-66
2022/09/07 05:18:37;;;;;;;43.85;4.72;;;34.00;81.20;;;;;;5068890;28;20021;-67
2022/09/07 05:21:14;;;;;;;40.90;4.50;;;33.90;81.70;;;;;;5074334;28;21457;-68
2022/09/07 05:23:42;;;;;;;30.67;4.13;;;33.90;82.60;;;;;;5071720;28;20028;-68
2022/09/07 05:26:10;;;;;;;42.47;4.15;;;33.80;83.30;;;;;;5053401;28;20078;-69
2022/09/07 05:28:37;;;;;;;26.58;3.65;;;33.80;83.60;;;;;;5053835;28;20025;-66
2022/09/07 05:31:12;;;;;;;39.97;3.70;;;33.70;83.90;;;;;;5071260;28;20031;-69
2022/09/07 05:33:38;;;;;;;33.30;4.15;;;33.70;84.80;;;;;;5071457;28;20103;-69
2022/09/07 05:36:06;;;;;;;49.85;5.03;;;33.70;85.50;;;;;;5053560;28;20100;-69
2022/09/07 05:38:36;;;;;;;33.25;4.63;;;33.70;86.10;;;;;;5069226;28;20040;-65
2022/09/07 05:41:18;;;;;;;32.83;4.32;;;33.60;86.70;;;;;;5069462;28;20046;-66
2022/09/07 05:43:45;;;;;;;31.60;4.22;;;33.60;88.00;;;;;;5071393;28;20087;-67
2022/09/07 05:46:12;;;;;;;22.55;4.05;;;33.60;89.20;;;;;;5073834;28;20041;-67
2022/09/07 05:48:42;;;;;;;25.25;3.35;;;33.40;90.20;;;;;;5071078;28;20141;-68
2022/09/07 05:51:09;;;;;;;41.35;3.90;;;33.50;90.60;;;;;;5068543;28;20092;-65
2022/09/07 05:53:37;;;;;;;20.58;3.20;;;33.50;91.40;;;;;;5069449;28;20119;-66
2022/09/07 05:56:05;;;;;;;25.95;4.18;;;33.50;91.40;;;;;;5068973;28;20136;-68
2022/09/07 05:58:32;;;;;;;35.33;4.75;;;33.40;91.80;;;;;;5073749;28;20035;-67
2022/09/07 06:01:04;;;;;;;27.98;4.10;;;33.40;92.30;;;;;;5073887;28;20091;-64
2022/09/07 06:03:31;;;;;;;30.73;4.10;;;33.30;92.70;;;;;;5073911;28;20122;-68
2022/09/07 06:06:10;;;;;;;25.27;4.30;;;33.30;93.10;;;;;;5075936;28;20487;-68
2022/09/07 06:08:38;;;;;;;27.02;4.20;;;33.20;93.40;;;;;;5072218;28;20062;-65
2022/09/07 06:11:09;;;;;;;24.42;5.20;;;33.20;93.80;;;;;;5073573;28;20105;-67
2022/09/07 06:13:37;;;;;;;19.27;4.20;;;33.20;94.50;;;;;;5075900;28;20525;-66
2022/09/07 06:16:08;;;;;;;21.35;4.65;;;33.10;94.90;;;;;;5074982;28;20060;-68
2022/09/07 06:18:37;;;;;;;24.30;4.75;;;33.10;95.50;;;;;;5075558;28;20131;-68
2022/09/07 06:21:05;;;;;;;24.58;4.50;;;33.00;95.90;;;;;;5058573;28;20038;-65
2022/09/07 06:23:33;;;;;;;31.50;4.82;;;33.00;96.30;;;;;;5077825;28;20102;-68
2022/09/07 06:26:00;;;;;;;26.65;4.88;;;33.00;96.60;;;;;;5072584;28;20548;-67
2022/09/07 06:28:28;;;;;;;56.13;5.68;;;33.10;96.50;;;;;;5075739;28;20135;-64
2022/09/07 06:31:02;;;;;;;24.65;5.28;;;33.00;96.40;;;;;;5089604;28;20044;-67
2022/09/07 06:33:29;;;;;;;25.30;5.35;;;33.00;96.10;;;;;;5057389;28;20083;-68
2022/09/07 06:36:00;;;;;;;25.92;5.22;;;32.90;96.30;;;;;;5075242;28;20123;-67
2022/09/07 06:38:31;;;;;;;26.02;5.55;;;32.90;96.20;;;;;;5071662;28;20037;-65
2022/09/07 06:41:11;;;;;;;22.00;4.72;;;33.00;96.20;;;;;;5073387;28;20045;-68
2022/09/07 06:43:38;;;;;;;21.17;4.30;;;33.00;96.10;;;;;;5074656;28;20068;-65
2022/09/07 06:46:05;;;;;;;22.52;4.53;;;32.90;96.00;;;;;;5074327;28;20042;-70
2022/09/07 06:48:32;;;;;;;20.65;4.53;;;32.70;99.90;;;;;;5072501;28;20063;-67
2022/09/07 06:51:04;;;;;;;23.50;4.70;;;32.80;99.90;;;;;;5088666;28;20024;-65
2022/09/07 06:53:34;;;;;;;22.60;4.00;;;32.90;99.90;;;;;;5073240;28;20500;-69
2022/09/07 06:56:01;;;;;;;25.80;4.93;;;32.90;95.50;;;;;;5069803;28;20060;-66
2022/09/07 06:58:27;;;;;;;23.02;3.80;;;32.90;99.90;;;;;;5071295;28;20021;-66
2022/09/07 07:00:55;;;;;;;23.92;4.53;;;32.30;99.90;;;;;;5075033;28;20036;-64
2022/09/07 07:03:21;;;;;;;19.48;4.50;;;32.70;99.90;;;;;;5075150;28;20107;-67
2022/09/07 07:05:56;;;;;;;22.27;4.63;;;32.80;99.90;;;;;;5074236;28;20031;-66
2022/09/07 07:08:24;;;;;;;25.08;5.32;;;32.70;99.90;;;;;;5070025;28;20082;-66
2022/09/07 07:10:51;;;;;;;21.85;3.92;;;32.80;96.70;;;;;;5072182;28;20059;-66
2022/09/07 07:13:18;;;;;;;26.33;4.57;;;32.60;96.70;;;;;;5073430;28;20513;-69
2022/09/07 07:15:45;;;;;;;23.38;4.70;;;32.70;97.10;;;;;;5070884;28;20539;-67
2022/09/07 07:18:13;;;;;;;18.83;4.63;;;32.60;99.90;;;;;;5075224;28;20024;-66
2022/09/07 07:20:41;;;;;;;26.10;5.25;;;32.60;97.50;;;;;;5071801;28;20027;-65
2022/09/07 07:23:07;;;;;;;26.77;5.00;;;32.60;97.70;;;;;;5074740;28;20020;-65
2022/09/07 07:25:35;;;;;;;24.77;5.45;;;32.60;97.50;;;;;;5073220;28;20107;-67
2022/09/07 07:28:02;;;;;;;23.70;5.22;;;32.60;97.40;;;;;;5070332;28;20161;-64
2022/09/07 07:30:29;;;;;;;28.48;5.05;;;32.50;97.20;;;;;;5052863;28;20445;-65
2022/09/07 07:32:56;;;;;;;21.65;4.75;;;32.50;97.10;;;;;;5073103;28;20091;-65
2022/09/07 07:35:23;;;;;;;22.48;4.45;;;32.60;96.90;;;;;;5072183;28;20527;-64
2022/09/07 07:37:53;;;;;;;15.48;3.90;;;32.60;96.80;;;;;;5072113;28;20077;-64
2022/09/07 07:40:22;;;;;;;18.67;4.47;;;32.60;96.90;;;;;;5069209;28;20055;-65
2022/09/07 07:42:48;;;;;;;22.17;5.00;;;32.50;96.40;;;;;;5071339;28;20140;-65
2022/09/07 07:45:15;;;;;;;19.63;4.18;;;32.50;96.80;;;;;;5072717;28;20109;-63
2022/09/07 07:47:41;;;;;;;18.20;4.50;;;32.50;99.90;;;;;;5070531;28;20039;-65
2022/09/07 07:50:08;;;;;;;19.80;4.55;;;32.50;96.90;;;;;;5068847;28;20099;-66
2022/09/07 07:52:37;;;;;;;20.38;3.97;;;32.50;96.90;;;;;;5072476;28;20049;-65
2022/09/07 07:55:05;;;;;;;19.15;4.63;;;32.50;96.90;;;;;;5055174;28;20054;-65
2022/09/07 07:57:31;;;;;;;14.63;3.85;;;32.50;96.80;;;;;;5072166;28;20458;-65
2022/09/07 07:59:58;;;;;;;23.27;4.00;;;32.50;96.90;;;;;;5071992;28;20429;-66
2022/09/07 08:02:25;;;;;;;14.65;3.75;;;32.50;96.70;;;;;;5087509;28;20034;-64
2022/09/07 08:04:52;;;;;;;21.90;4.70;;;32.40;96.60;;;;;;5072304;28;20056;-65
2022/09/07 08:07:18;;;;;;;15.10;3.97;;;32.40;96.50;;;;;;5070376;28;20496;-64
2022/09/07 08:09:46;;;;;;;15.30;3.42;;;32.40;96.50;;;;;;5052902;28;20044;-64
2022/09/07 08:12:15;;;;;;;14.98;3.80;;;32.40;96.40;;;;;;5069750;28;20052;-63
2022/09/07 08:14:42;;;;;;;16.58;4.15;;;32.30;96.40;;;;;;5071308;28;20506;-67
2022/09/07 08:17:11;;;;;;;17.65;4.00;;;32.40;96.40;;;;;;5054356;28;20048;-66
2022/09/07 08:19:38;;;;;;;17.50;4.00;;;32.40;96.40;;;;;;5068213;28;20069;-67
2022/09/07 08:22:05;;;;;;;17.55;3.80;;;32.20;96.60;;;;;;5069637;28;20422;-65
2022/09/07 08:24:32;;;;;;;19.63;4.25;;;32.30;96.70;;;;;;5074078;28;20044;-64
2022/09/07 08:27:02;;;;;;;18.35;3.97;;;32.20;96.90;;;;;;5056298;28;20057;-64
2022/09/07 08:29:29;;;;;;;15.13;3.33;;;32.20;97.10;;;;;;5070207;28;20066;-66
2022/09/07 08:31:55;;;;;;;16.40;3.60;;;32.20;97.20;;;;;;5071845;28;20071;-64
2022/09/07 08:34:22;;;;;;;18.92;3.53;;;32.10;97.50;;;;;;5070737;28;20090;-65
2022/09/07 08:36:51;;;;;;;21.90;4.25;;;32.10;97.60;;;;;;5069984;28;20066;-63
2022/09/07 08:39:17;;;;;;;20.20;4.57;;;32.10;97.80;;;;;;5071370;28;20051;-66
2022/09/07 08:41:59;;;;;;;25.25;5.20;;;32.00;99.90;;;;;;5066703;28;20025;-65
2022/09/07 08:44:40;;;;;;;17.17;3.80;;;32.10;98.40;;;;;;5070934;28;20053;-66
2022/09/07 08:47:16;;;;;;;20.20;3.75;;;31.90;99.90;;;;;;5070855;28;20481;-64
2022/09/07 08:50:20;;;;;;;20.23;3.83;;;31.90;99.40;;;;;;5071825;28;20153;-66
2022/09/07 08:53:07;;;;;;;20.30;4.68;;;31.90;99.90;;;;;;5073268;28;20879;-64
2022/09/07 08:55:43;;;;;;;21.00;4.55;;;31.80;99.90;;;;;;5054698;28;20151;-64
2022/09/07 08:58:18;;;;;;;18.67;4.45;;;31.80;99.90;;;;;;5070366;28;20075;-65
2022/09/07 09:00:50;;;;;;;20.58;4.93;;;31.80;99.90;;;;;;5070470;28;20041;-65
2022/09/07 09:03:27;;;;;;;17.88;4.03;;;31.80;99.90;;;;;;5072741;28;20039;-63
2022/09/07 09:05:59;;;;;;;22.75;4.55;;;31.70;99.90;;;;;;5071608;28;20068;-64
2022/09/07 09:08:29;;;;;;;33.25;4.75;;;31.70;99.90;;;;;;5071691;28;20031;-65
2022/09/07 09:11:07;;;;;;;26.02;5.60;;;31.70;99.90;;;;;;5068790;28;20070;-66
2022/09/07 09:14:08;;;;;;;23.27;4.55;;;31.70;99.90;;;;;;5071260;28;20183;-67
2022/09/07 09:16:43;;;;;;;30.25;5.93;;;31.60;99.90;;;;;;5067615;28;20043;-65
2022/09/07 09:19:27;;;;;;;26.75;5.70;;;31.60;99.90;;;;;;5070376;28;20071;-65
2022/09/07 09:22:27;;;;;;;26.65;4.97;;;31.60;99.90;;;;;;5070908;28;20144;-63
2022/09/07 09:24:56;;;;;;;26.95;5.82;;;31.50;99.90;;;;;;5068719;28;20062;-66
2022/09/07 09:27:23;;;;;;;28.40;5.95;;;31.50;99.90;;;;;;5073086;28;20056;-68
2022/09/07 09:29:49;;;;;;;23.35;4.95;;;31.50;99.90;;;;;;5068531;28;20221;-66
2022/09/07 09:32:36;;;;;;;32.72;5.85;;;31.40;99.90;;;;;;5055213;28;20050;-65
2022/09/07 09:35:41;;;;;;;24.50;5.43;;;31.40;99.90;;;;;;5075407;28;20025;-64
2022/09/07 09:38:32;;;;;;;21.20;4.97;;;31.30;99.90;;;;;;5074776;28;20138;-66
2022/09/07 09:41:10;;;;;;;28.55;5.10;;;31.50;99.90;;;;;;5072511;28;20082;-64
2022/09/07 09:43:57;;;;;;;23.20;4.82;;;31.30;99.90;;;;;;5069906;28;20589;-64
2022/09/07 09:46:34;;;;;;;27.25;4.70;;;31.30;99.90;;;;;;5055942;28;20097;-64
2022/09/07 09:49:05;;;;;;;22.25;5.18;;;31.30;99.90;;;;;;5057079;28;20052;-63
2022/09/07 09:51:41;;;;;;;22.63;5.47;;;31.40;99.90;;;;;;5072099;28;20433;-65
2022/09/07 09:54:13;;;;;;;23.05;4.85;;;31.30;99.90;;;;;;5054813;28;20055;-64
2022/09/07 09:56:45;;;;;;;22.63;4.95;;;31.30;99.90;;;;;;5073375;28;20045;-63
2022/09/07 09:59:17;;;;;;;24.05;5.25;;;31.30;99.90;;;;;;5054761;28;20058;-64
2022/09/07 10:01:46;;;;;;;25.35;4.85;;;31.30;99.90;;;;;;5072269;28;20053;-63
2022/09/07 10:04:24;;;;;;;21.83;4.13;;;31.20;99.90;;;;;;5057089;28;20057;-63
2022/09/07 10:06:54;;;;;;;23.67;4.47;;;31.20;99.90;;;;;;5071446;28;20077;-64
2022/09/07 10:09:24;;;;;;;22.92;5.07;;;31.20;99.90;;;;;;5070629;28;20086;-65
2022/09/07 10:12:03;;;;;;;24.52;5.20;;;31.20;99.90;;;;;;5074673;28;20555;-64
2022/09/07 10:14:45;;;;;;;25.95;5.43;;;31.20;99.90;;;;;;5064845;28;20432;-64
2022/09/07 10:17:29;;;;;;;23.17;4.88;;;31.10;99.90;;;;;;5074740;28;20046;-65
2022/09/07 10:20:17;;;;;;;20.23;5.05;;;31.10;99.90;;;;;;5076106;28;20046;-67
2022/09/07 10:22:56;;;;;;;24.17;5.13;;;31.10;99.90;;;;;;5077126;28;20064;-64
2022/09/07 10:25:39;;;;;;;22.98;5.53;;;31.10;99.90;;;;;;5073121;28;20517;-63
2022/09/07 10:28:14;;;;;;;19.90;4.82;;;31.10;99.90;;;;;;5077447;28;20057;-64
2022/09/07 10:31:00;;;;;;;26.52;4.78;;;31.00;99.90;;;;;;5073564;28;20071;-62
2022/09/07 10:34:10;;;;;;;24.38;4.50;;;31.10;99.90;;;;;;5071129;28;20096;-65
2022/09/07 10:36:48;;;;;;;21.25;4.72;;;31.10;99.90;;;;;;5071016;28;20050;-64
2022/09/07 10:39:17;;;;;;;23.67;4.95;;;31.00;99.90;;;;;;5039075;28;20080;-64
2022/09/07 10:41:46;;;;;;;22.48;5.07;;;31.00;99.90;;;;;;5040362;28;20056;-65
2022/09/07 10:44:43;;;;;;;25.05;5.40;;;31.00;99.90;;;;;;5070458;28;20081;-63
2022/09/07 10:47:33;;;;;;;27.85;5.38;;;31.00;99.90;;;;;;5059803;28;20079;-65
2022/09/07 10:50:08;;;;;;;23.90;5.47;;;31.00;99.90;;;;;;5054483;28;20048;-66
2022/09/07 10:53:16;;;;;;;24.45;5.00;;;30.90;99.90;;;;;;5053595;28;20050;-66
2022/09/07 10:55:59;;;;;;;24.52;4.80;;;30.90;99.90;;;;;;5050912;28;20059;-65
2022/09/07 10:58:44;;;;;;;30.60;5.50;;;30.90;99.90;;;;;;5071776;28;20531;-65
2022/09/07 11:01:22;;;;;;;23.05;5.15;;;30.90;99.90;;;;;;5055144;28;20075;-65
2022/09/07 11:04:09;;;;;;;27.55;5.13;;;30.90;99.90;;;;;;5070412;28;20044;-64
2022/09/07 11:06:41;;;;;;;24.25;4.60;;;30.80;99.90;;;;;;5041547;28;20053;-65
2022/09/07 11:10:02;;;;;;;27.88;5.05;;;30.80;99.90;;;;;;5054577;28;20060;-64
2022/09/07 11:12:35;;;;;;;32.05;5.45;;;30.80;99.90;;;;;;5055934;28;20096;-64
2022/09/07 11:15:13;;;;;;;25.20;5.47;;;30.80;99.90;;;;;;5069074;28;20485;-67
2022/09/07 11:18:20;;;;;;;27.73;5.22;;;30.70;99.90;;;;;;5070765;28;20080;-65
2022/09/07 11:20:53;;;;;;;;;;;30.80;99.90;;;;;;5052473;28;20036;-65
2022/09/07 11:23:53;;;;;;;25.38;4.95;;;30.80;99.90;;;;;;5052002;28;20306;-65
2022/09/07 11:26:26;;;;;;;29.33;5.65;;;30.70;99.90;;;;;;5049205;28;20115;-64
2022/09/07 11:28:59;;;;;;;24.65;5.18;;;30.70;99.90;;;;;;5066450;28;20021;-65
2022/09/07 11:31:31;;;;;;;19.95;4.15;;;30.70;99.90;;;;;;5034769;28;20389;-64
2022/09/07 11:34:15;;;;;;;28.58;4.93;;;30.70;99.90;;;;;;5050252;28;20044;-64
2022/09/07 11:36:56;;;;;;;21.95;5.28;;;30.70;99.90;;;;;;5043032;28;20062;-64
2022/09/07 11:39:29;;;;;;;26.13;4.28;;;30.70;99.90;;;;;;5071191;28;20062;-63
2022/09/07 11:42:05;;;;;;;23.58;5.28;;;30.70;99.90;;;;;;5067128;28;20052;-64
2022/09/07 11:45:27;;;;;;;26.33;4.97;;;30.70;99.90;;;;;;5086535;28;20043;-63
2022/09/07 11:48:12;;;;;;;25.75;4.82;;;30.70;99.90;;;;;;5030475;28;20683;-64
2022/09/07 11:50:45;;;;;;;31.67;5.97;;;30.60;99.90;;;;;;5046934;28;20057;-64
2022/09/07 11:53:20;;;;;;;28.98;5.97;;;30.60;99.90;;;;;;5047001;28;20043;-64
2022/09/07 11:55:53;;;;;;;34.80;5.47;;;30.50;99.90;;;;;;5029807;28;20028;-63
2022/09/07 11:58:38;;;;;;;23.70;4.95;;;30.60;99.90;;;;;;5013791;28;20048;-64
2022/09/07 12:01:40;;;;;;;29.92;4.55;;;30.60;99.90;;;;;;5029854;28;20033;-65
2022/09/07 12:04:28;;;;;;;29.05;5.25;;;30.60;99.90;;;;;;5046938;28;20032;-64
2022/09/07 12:07:24;;;;;;;28.15;5.28;;;30.60;99.90;;;;;;5047705;28;20033;-65
2022/09/07 12:09:56;;;;;;;31.13;4.93;;;30.50;99.90;;;;;;5047233;28;20041;-65
2022/09/07 12:12:47;;;;;;;32.15;5.75;;;30.50;99.90;;;;;;5046833;28;20033;-65
2022/09/07 12:15:32;;;;;;;31.33;5.60;;;30.60;99.90;;;;;;5047113;28;20052;-66
2022/09/07 12:18:47;;;;;;;30.25;5.63;;;30.60;99.90;;;;;;5040392;28;20523;-66
2022/09/07 12:21:34;;;;;;;32.97;5.20;;;30.50;99.90;;;;;;5041933;28;20039;-65
2022/09/07 12:24:01;;;;;;;23.70;5.20;;;30.60;99.90;;;;;;5085062;28;20033;-65
2022/09/07 12:26:34;;;;;;;23.30;5.28;;;30.60;99.90;;;;;;5072851;28;21398;-63
2022/09/07 12:29:00;;;;;;;30.15;4.97;;;30.60;99.90;;;;;;5075466;28;20075;-63
2022/09/07 12:31:47;;;;;;;27.25;5.20;;;30.50;99.90;;;;;;5071981;28;20391;-64
2022/09/07 12:34:32;;;;;;;28.38;5.22;;;30.50;99.90;;;;;;5085182;28;20048;-65
2022/09/07 12:37:20;;;;;;;28.10;4.32;;;30.50;99.90;;;;;;5069444;28;20077;-64
2022/09/07 12:39:47;;;;;;;30.05;5.63;;;30.50;99.90;;;;;;5057416;28;20360;-64
2022/09/07 12:42:28;;;;;;;35.40;5.75;;;30.50;99.90;;;;;;5070313;28;20127;-65
2022/09/07 12:45:29;;;;;;;22.83;4.93;;;30.50;99.90;;;;;;5069599;28;20020;-65
2022/09/07 12:48:02;;;;;;;32.65;5.50;;;30.40;99.90;;;;;;5069808;28;20040;-65
2022/09/07 12:50:35;;;;;;;27.83;5.18;;;30.50;99.90;;;;;;5070685;28;20021;-65
2022/09/07 12:53:07;;;;;;;30.88;5.55;;;30.50;99.90;;;;;;5069314;28;20034;-65
2022/09/07 12:55:34;;;;;;;37.53;5.15;;;30.50;99.90;;;;;;5070863;28;20070;-66
2022/09/07 12:58:11;;;;;;;25.58;4.28;;;30.50;99.90;;;;;;5071929;28;20127;-64
2022/09/07 13:01:05;;;;;;;22.35;4.85;;;30.50;99.90;;;;;;5071844;28;20020;-64
2022/09/07 13:04:09;;;;;;;27.35;4.85;;;30.40;99.90;;;;;;5074902;28;20379;-66
2022/09/07 13:07:06;;;;;;;26.23;5.03;;;30.50;99.90;;;;;;5071316;28;20020;-62
2022/09/07 13:09:41;;;;;;;27.35;5.13;;;30.50;99.90;;;;;;5075294;28;20039;-65
2022/09/07 13:12:37;;;;;;;25.25;5.50;;;30.50;99.90;;;;;;5074143;28;20135;-65
2022/09/07 13:15:04;;;;;;;22.05;5.50;;;30.50;99.90;;;;;;5075803;28;20063;-68